sensor_id;sensor_type;location;lat;lon;timestamp;P1;durP1;ratioP1;P2;durP2;ratioP2
26920;SDS011;14483;47.844;9.660;2023-05-07T00:01:57;3.30;;;1.80;;
26920;SDS011;14483;47.844;9.660;2023-05-07T00:04:23;4.22;;;2.15;;
26920;SDS011;14483;47.844;9.660;2023-05-07T00:06:49;6.10;;;2.22;;
26920;SDS011;14483;47.844;9.660;2023-05-07T00:09:16;4.03;;;1.77;;
26920;SDS011;14483;47.844;9.660;2023-05-07T00:11:43;4.65;;;2.28;;
26920;SDS011;14483;47.844;9.660;2023-05-07T00:14:10;4.90;;;2.20;;
26920;SDS011;14483;47.844;9.660;2023-05-07T00:16:36;2.13;;;1.73;;
26920;SDS011;14483;47.844;9.660;2023-05-07T00:19:03;5.75;;;2.28;;
26920;SDS011;14483;47.844;9.660;2023-05-07T00:21:29;6.22;;;2.22;;
26920;SDS011;14483;47.844;9.660;2023-05-07T00:23:55;4.22;;;2.05;;
26920;SDS011;14483;47.844;9.660;2023-05-07T00:26:22;5.05;;;1.90;;
26920;SDS011;14483;47.844;9.660;2023-05-07T00:28:50;4.50;;;2.40;;
26920;SDS011;14483;47.844;9.660;2023-05-07T00:31:16;4.13;;;2.25;;
26920;SDS011;14483;47.844;9.660;2023-05-07T00:33:42;3.50;;;2.45;;
26920;SDS011;14483;47.844;9.660;2023-05-07T00:36:09;6.13;;;2.92;;
26920;SDS011;14483;47.844;9.660;2023-05-07T00:38:35;7.95;;;2.38;;
26920;SDS011;14483;47.844;9.660;2023-05-07T00:41:01;6.93;;;2.40;;
26920;SDS011;14483;47.844;9.660;2023-05-07T00:43:28;3.35;;;2.08;;
26920;SDS011;14483;47.844;9.660;2023-05-07T00:45:56;4.45;;;2.22;;
26920;SDS011;14483;47.844;9.660;2023-05-07T00:48:22;3.42;;;2.25;;
26920;SDS011;14483;47.844;9.660;2023-05-07T00:50:49;2.53;;;1.80;;
26920;SDS011;14483;47.844;9.660;2023-05-07T00:53:15;4.18;;;2.05;;
26920;SDS011;14483;47.844;9.660;2023-05-07T00:55:42;3.40;;;2.25;;
26920;SDS011;14483;47.844;9.660;2023-05-07T00:58:08;2.40;;;1.65;;
26920;SDS011;14483;47.844;9.660;2023-05-07T01:00:35;5.30;;;1.95;;
26920;SDS011;14483;47.844;9.660;2023-05-07T01:03:02;4.30;;;2.13;;
26920;SDS011;14483;47.844;9.660;2023-05-07T01:05:29;2.58;;;1.95;;
26920;SDS011;14483;47.844;9.660;2023-05-07T01:07:56;2.92;;;1.52;;
26920;SDS011;14483;47.844;9.660;2023-05-07T01:10:23;2.20;;;1.58;;
26920;SDS011;14483;47.844;9.660;2023-05-07T01:12:50;3.55;;;2.28;;
26920;SDS011;14483;47.844;9.660;2023-05-07T01:15:17;3.30;;;1.95;;
26920;SDS011;14483;47.844;9.660;2023-05-07T01:17:43;4.32;;;1.80;;
26920;SDS011;14483;47.844;9.660;2023-05-07T01:20:11;3.50;;;2.30;;
26920;SDS011;14483;47.844;9.660;2023-05-07T01:22:40;3.13;;;2.22;;
26920;SDS011;14483;47.844;9.660;2023-05-07T01:25:07;3.13;;;1.92;;
26920;SDS011;14483;47.844;9.660;2023-05-07T01:27:33;2.00;;;1.80;;
26920;SDS011;14483;47.844;9.660;2023-05-07T01:30:00;5.72;;;2.53;;
26920;SDS011;14483;47.844;9.660;2023-05-07T01:32:27;3.05;;;2.00;;
26920;SDS011;14483;47.844;9.660;2023-05-07T01:34:55;3.50;;;2.20;;
26920;SDS011;14483;47.844;9.660;2023-05-07T01:37:21;4.68;;;2.22;;
26920;SDS011;14483;47.844;9.660;2023-05-07T01:39:49;3.80;;;2.15;;
26920;SDS011;14483;47.844;9.660;2023-05-07T01:42:16;2.67;;;1.98;;
26920;SDS011;14483;47.844;9.660;2023-05-07T01:44:42;2.40;;;2.03;;
26920;SDS011;14483;47.844;9.660;2023-05-07T01:47:09;3.25;;;2.38;;
26920;SDS011;14483;47.844;9.660;2023-05-07T01:49:36;4.93;;;2.17;;
26920;SDS011;14483;47.844;9.660;2023-05-07T01:52:02;3.03;;;2.10;;
26920;SDS011;14483;47.844;9.660;2023-05-07T01:54:29;4.47;;;2.40;;
26920;SDS011;14483;47.844;9.660;2023-05-07T01:56:57;2.90;;;1.83;;
26920;SDS011;14483;47.844;9.660;2023-05-07T01:59:23;2.10;;;1.60;;
26920;SDS011;14483;47.844;9.660;2023-05-07T02:01:50;4.18;;;1.77;;
26920;SDS011;14483;47.844;9.660;2023-05-07T02:04:16;5.68;;;1.85;;
26920;SDS011;14483;47.844;9.660;2023-05-07T02:06:43;2.80;;;1.58;;
26920;SDS011;14483;47.844;9.660;2023-05-07T02:09:09;3.17;;;2.08;;
26920;SDS011;14483;47.844;9.660;2023-05-07T02:11:36;5.65;;;2.00;;
26920;SDS011;14483;47.844;9.660;2023-05-07T02:14:03;3.45;;;1.55;;
26920;SDS011;14483;47.844;9.660;2023-05-07T02:16:30;2.78;;;1.95;;
26920;SDS011;14483;47.844;9.660;2023-05-07T02:18:56;3.88;;;1.92;;
26920;SDS011;14483;47.844;9.660;2023-05-07T02:21:23;4.13;;;2.28;;
26920;SDS011;14483;47.844;9.660;2023-05-07T02:23:49;3.83;;;2.15;;
26920;SDS011;14483;47.844;9.660;2023-05-07T02:26:15;3.08;;;1.85;;
26920;SDS011;14483;47.844;9.660;2023-05-07T02:28:42;2.63;;;1.70;;
26920;SDS011;14483;47.844;9.660;2023-05-07T02:31:10;3.50;;;1.77;;
26920;SDS011;14483;47.844;9.660;2023-05-07T02:33:36;2.60;;;1.70;;
26920;SDS011;14483;47.844;9.660;2023-05-07T02:36:06;1.90;;;1.40;;
26920;SDS011;14483;47.844;9.660;2023-05-07T02:38:33;2.67;;;1.67;;
26920;SDS011;14483;47.844;9.660;2023-05-07T02:41:00;2.58;;;1.95;;
26920;SDS011;14483;47.844;9.660;2023-05-07T02:43:26;5.82;;;2.33;;
26920;SDS011;14483;47.844;9.660;2023-05-07T02:45:59;4.10;;;2.65;;
26920;SDS011;14483;47.844;9.660;2023-05-07T02:48:27;5.80;;;2.33;;
26920;SDS011;14483;47.844;9.660;2023-05-07T02:50:53;4.30;;;1.92;;
26920;SDS011;14483;47.844;9.660;2023-05-07T02:53:20;2.97;;;1.77;;
26920;SDS011;14483;47.844;9.660;2023-05-07T02:55:46;2.75;;;1.83;;
26920;SDS011;14483;47.844;9.660;2023-05-07T02:58:13;4.97;;;1.90;;
26920;SDS011;14483;47.844;9.660;2023-05-07T03:00:39;3.67;;;1.80;;
26920;SDS011;14483;47.844;9.660;2023-05-07T03:03:05;2.67;;;1.85;;
26920;SDS011;14483;47.844;9.660;2023-05-07T03:05:33;4.13;;;2.10;;
26920;SDS011;14483;47.844;9.660;2023-05-07T03:08:00;3.40;;;1.65;;
26920;SDS011;14483;47.844;9.660;2023-05-07T03:10:26;3.92;;;2.13;;
26920;SDS011;14483;47.844;9.660;2023-05-07T03:12:52;2.55;;;1.80;;
26920;SDS011;14483;47.844;9.660;2023-05-07T03:15:19;2.65;;;1.60;;
26920;SDS011;14483;47.844;9.660;2023-05-07T03:17:45;3.28;;;1.40;;
26920;SDS011;14483;47.844;9.660;2023-05-07T03:20:11;2.65;;;1.50;;
26920;SDS011;14483;47.844;9.660;2023-05-07T03:22:39;3.67;;;1.35;;
26920;SDS011;14483;47.844;9.660;2023-05-07T03:25:06;4.70;;;1.98;;
26920;SDS011;14483;47.844;9.660;2023-05-07T03:27:32;4.38;;;1.67;;
26920;SDS011;14483;47.844;9.660;2023-05-07T03:29:59;2.40;;;1.30;;
26920;SDS011;14483;47.844;9.660;2023-05-07T03:32:25;4.72;;;1.40;;
26920;SDS011;14483;47.844;9.660;2023-05-07T03:34:51;3.78;;;1.70;;
26920;SDS011;14483;47.844;9.660;2023-05-07T03:37:18;3.03;;;1.60;;
26920;SDS011;14483;47.844;9.660;2023-05-07T03:39:46;4.75;;;1.55;;
26920;SDS011;14483;47.844;9.660;2023-05-07T03:42:12;2.75;;;2.20;;
26920;SDS011;14483;47.844;9.660;2023-05-07T03:44:38;3.95;;;1.33;;
26920;SDS011;14483;47.844;9.660;2023-05-07T03:47:05;2.80;;;1.27;;
26920;SDS011;14483;47.844;9.660;2023-05-07T03:49:31;3.72;;;1.48;;
26920;SDS011;14483;47.844;9.660;2023-05-07T03:51:57;3.50;;;1.60;;
26920;SDS011;14483;47.844;9.660;2023-05-07T03:54:24;3.55;;;1.50;;
26920;SDS011;14483;47.844;9.660;2023-05-07T03:56:51;3.85;;;1.67;;
26920;SDS011;14483;47.844;9.660;2023-05-07T03:59:18;2.38;;;1.55;;
26920;SDS011;14483;47.844;9.660;2023-05-07T04:01:44;3.35;;;1.75;;
26920;SDS011;14483;47.844;9.660;2023-05-07T04:04:10;3.05;;;1.55;;
26920;SDS011;14483;47.844;9.660;2023-05-07T04:06:37;4.75;;;2.08;;
26920;SDS011;14483;47.844;9.660;2023-05-07T04:09:03;5.38;;;1.75;;
26920;SDS011;14483;47.844;9.660;2023-05-07T04:11:30;1.90;;;1.42;;
26920;SDS011;14483;47.844;9.660;2023-05-07T04:13:57;3.40;;;1.30;;
26920;SDS011;14483;47.844;9.660;2023-05-07T04:16:24;5.45;;;1.45;;
26920;SDS011;14483;47.844;9.660;2023-05-07T04:18:50;2.33;;;1.40;;
26920;SDS011;14483;47.844;9.660;2023-05-07T04:21:16;1.30;;;1.02;;
26920;SDS011;14483;47.844;9.660;2023-05-07T04:23:43;4.35;;;1.65;;
26920;SDS011;14483;47.844;9.660;2023-05-07T04:26:10;3.95;;;1.67;;
26920;SDS011;14483;47.844;9.660;2023-05-07T04:28:38;3.83;;;1.73;;
26920;SDS011;14483;47.844;9.660;2023-05-07T04:31:06;2.28;;;1.40;;
26920;SDS011;14483;47.844;9.660;2023-05-07T04:33:33;4.38;;;1.40;;
26920;SDS011;14483;47.844;9.660;2023-05-07T04:36:01;3.63;;;1.92;;
26920;SDS011;14483;47.844;9.660;2023-05-07T04:38:29;3.38;;;1.80;;
26920;SDS011;14483;47.844;9.660;2023-05-07T04:40:55;3.15;;;1.90;;
26920;SDS011;14483;47.844;9.660;2023-05-07T04:43:22;4.88;;;2.25;;
26920;SDS011;14483;47.844;9.660;2023-05-07T04:45:49;5.03;;;2.17;;
26920;SDS011;14483;47.844;9.660;2023-05-07T04:48:17;3.05;;;1.92;;
26920;SDS011;14483;47.844;9.660;2023-05-07T04:50:44;4.05;;;2.00;;
26920;SDS011;14483;47.844;9.660;2023-05-07T04:53:10;2.60;;;1.95;;
26920;SDS011;14483;47.844;9.660;2023-05-07T04:55:37;4.68;;;2.47;;
26920;SDS011;14483;47.844;9.660;2023-05-07T04:58:03;3.08;;;2.05;;
26920;SDS011;14483;47.844;9.660;2023-05-07T05:00:30;3.13;;;1.52;;
26920;SDS011;14483;47.844;9.660;2023-05-07T05:02:56;4.43;;;1.88;;
26920;SDS011;14483;47.844;9.660;2023-05-07T05:05:24;2.75;;;1.73;;
26920;SDS011;14483;47.844;9.660;2023-05-07T05:07:50;4.28;;;1.65;;
26920;SDS011;14483;47.844;9.660;2023-05-07T05:10:18;4.35;;;1.67;;
26920;SDS011;14483;47.844;9.660;2023-05-07T05:12:44;4.18;;;2.08;;
26920;SDS011;14483;47.844;9.660;2023-05-07T05:15:11;2.13;;;1.38;;
26920;SDS011;14483;47.844;9.660;2023-05-07T05:17:37;2.85;;;1.83;;
26920;SDS011;14483;47.844;9.660;2023-05-07T05:20:04;3.00;;;1.55;;
26920;SDS011;14483;47.844;9.660;2023-05-07T05:22:32;3.40;;;1.55;;
26920;SDS011;14483;47.844;9.660;2023-05-07T05:24:59;1.90;;;1.50;;
26920;SDS011;14483;47.844;9.660;2023-05-07T05:27:25;3.78;;;1.60;;
26920;SDS011;14483;47.844;9.660;2023-05-07T05:29:52;2.78;;;1.52;;
26920;SDS011;14483;47.844;9.660;2023-05-07T05:32:18;2.10;;;1.40;;
26920;SDS011;14483;47.844;9.660;2023-05-07T05:34:44;3.45;;;1.83;;
26920;SDS011;14483;47.844;9.660;2023-05-07T05:37:11;4.10;;;1.73;;
26920;SDS011;14483;47.844;9.660;2023-05-07T05:39:39;3.58;;;1.55;;
26920;SDS011;14483;47.844;9.660;2023-05-07T05:42:05;4.07;;;2.28;;
26920;SDS011;14483;47.844;9.660;2023-05-07T05:44:31;3.50;;;1.90;;
26920;SDS011;14483;47.844;9.660;2023-05-07T05:46:58;5.43;;;2.67;;
26920;SDS011;14483;47.844;9.660;2023-05-07T05:49:24;3.15;;;2.20;;
26920;SDS011;14483;47.844;9.660;2023-05-07T05:51:51;4.00;;;2.22;;
26920;SDS011;14483;47.844;9.660;2023-05-07T05:54:17;5.25;;;3.10;;
26920;SDS011;14483;47.844;9.660;2023-05-07T05:56:45;8.50;;;3.58;;
26920;SDS011;14483;47.844;9.660;2023-05-07T05:59:11;6.00;;;2.80;;
26920;SDS011;14483;47.844;9.660;2023-05-07T06:01:37;4.85;;;2.85;;
26920;SDS011;14483;47.844;9.660;2023-05-07T06:04:04;5.72;;;2.65;;
26920;SDS011;14483;47.844;9.660;2023-05-07T06:06:30;3.88;;;2.78;;
26920;SDS011;14483;47.844;9.660;2023-05-07T06:08:57;7.50;;;3.10;;
26920;SDS011;14483;47.844;9.660;2023-05-07T06:11:23;5.63;;;3.00;;
26920;SDS011;14483;47.844;9.660;2023-05-07T06:13:51;3.45;;;2.88;;
26920;SDS011;14483;47.844;9.660;2023-05-07T06:16:18;4.90;;;3.00;;
26920;SDS011;14483;47.844;9.660;2023-05-07T06:18:44;5.25;;;3.05;;
26920;SDS011;14483;47.844;9.660;2023-05-07T06:21:11;5.40;;;3.47;;
26920;SDS011;14483;47.844;9.660;2023-05-07T06:23:38;4.50;;;3.28;;
26920;SDS011;14483;47.844;9.660;2023-05-07T06:26:05;4.65;;;2.80;;
26920;SDS011;14483;47.844;9.660;2023-05-07T06:28:32;4.05;;;2.95;;
26920;SDS011;14483;47.844;9.660;2023-05-07T06:31:11;3.58;;;2.95;;
26920;SDS011;14483;47.844;9.660;2023-05-07T06:33:38;7.22;;;3.08;;
26920;SDS011;14483;47.844;9.660;2023-05-07T06:36:05;5.22;;;2.92;;
26920;SDS011;14483;47.844;9.660;2023-05-07T06:38:31;3.13;;;2.47;;
26920;SDS011;14483;47.844;9.660;2023-05-07T06:40:58;3.35;;;2.38;;
26920;SDS011;14483;47.844;9.660;2023-05-07T06:43:24;5.28;;;2.33;;
26920;SDS011;14483;47.844;9.660;2023-05-07T06:45:51;4.07;;;2.47;;
26920;SDS011;14483;47.844;9.660;2023-05-07T06:48:18;3.38;;;2.88;;
26920;SDS011;14483;47.844;9.660;2023-05-07T06:50:45;5.43;;;1.88;;
26920;SDS011;14483;47.844;9.660;2023-05-07T06:53:11;3.50;;;2.90;;
26920;SDS011;14483;47.844;9.660;2023-05-07T06:55:37;4.63;;;2.00;;
26920;SDS011;14483;47.844;9.660;2023-05-07T06:58:04;2.55;;;1.85;;
26920;SDS011;14483;47.844;9.660;2023-05-07T07:00:31;2.92;;;1.67;;
26920;SDS011;14483;47.844;9.660;2023-05-07T07:02:57;4.50;;;1.50;;
26920;SDS011;14483;47.844;9.660;2023-05-07T07:05:26;2.45;;;1.40;;
26920;SDS011;14483;47.844;9.660;2023-05-07T07:07:52;2.17;;;1.35;;
26920;SDS011;14483;47.844;9.660;2023-05-07T07:10:18;2.33;;;1.27;;
26920;SDS011;14483;47.844;9.660;2023-05-07T07:12:45;1.73;;;1.17;;
26920;SDS011;14483;47.844;9.660;2023-05-07T07:15:12;3.05;;;1.13;;
26920;SDS011;14483;47.844;9.660;2023-05-07T07:17:39;3.72;;;0.98;;
26920;SDS011;14483;47.844;9.660;2023-05-07T07:20:06;3.35;;;1.15;;
26920;SDS011;14483;47.844;9.660;2023-05-07T07:22:34;2.13;;;1.10;;
26920;SDS011;14483;47.844;9.660;2023-05-07T07:25:00;2.33;;;0.90;;
26920;SDS011;14483;47.844;9.660;2023-05-07T07:27:27;2.80;;;0.95;;
26920;SDS011;14483;47.844;9.660;2023-05-07T07:29:53;2.80;;;1.13;;
26920;SDS011;14483;47.844;9.660;2023-05-07T07:32:22;2.88;;;1.30;;
26920;SDS011;14483;47.844;9.660;2023-05-07T07:34:49;3.10;;;1.13;;
26920;SDS011;14483;47.844;9.660;2023-05-07T07:37:15;1.95;;;1.00;;
26920;SDS011;14483;47.844;9.660;2023-05-07T07:39:43;1.75;;;1.13;;
26920;SDS011;14483;47.844;9.660;2023-05-07T07:42:10;1.80;;;1.13;;
26920;SDS011;14483;47.844;9.660;2023-05-07T07:44:36;2.20;;;1.15;;
26920;SDS011;14483;47.844;9.660;2023-05-07T07:47:04;2.90;;;1.35;;
26920;SDS011;14483;47.844;9.660;2023-05-07T07:49:30;3.97;;;0.98;;
26920;SDS011;14483;47.844;9.660;2023-05-07T07:51:57;2.67;;;1.27;;
26920;SDS011;14483;47.844;9.660;2023-05-07T07:54:24;3.50;;;0.98;;
26920;SDS011;14483;47.844;9.660;2023-05-07T07:56:52;2.10;;;1.20;;
26920;SDS011;14483;47.844;9.660;2023-05-07T07:59:18;4.38;;;1.17;;
26920;SDS011;14483;47.844;9.660;2023-05-07T08:01:45;2.10;;;1.40;;
26920;SDS011;14483;47.844;9.660;2023-05-07T08:04:13;1.63;;;1.30;;
26920;SDS011;14483;47.844;9.660;2023-05-07T08:06:39;3.67;;;1.55;;
26920;SDS011;14483;47.844;9.660;2023-05-07T08:09:06;3.28;;;1.38;;
26920;SDS011;14483;47.844;9.660;2023-05-07T08:11:32;2.58;;;1.10;;
26920;SDS011;14483;47.844;9.660;2023-05-07T08:14:00;2.40;;;1.50;;
26920;SDS011;14483;47.844;9.660;2023-05-07T08:16:26;2.40;;;1.40;;
26920;SDS011;14483;47.844;9.660;2023-05-07T08:18:53;2.95;;;1.60;;
26920;SDS011;14483;47.844;9.660;2023-05-07T08:21:19;3.95;;;1.55;;
26920;SDS011;14483;47.844;9.660;2023-05-07T08:23:46;2.40;;;1.33;;
26920;SDS011;14483;47.844;9.660;2023-05-07T08:26:12;2.95;;;1.60;;
26920;SDS011;14483;47.844;9.660;2023-05-07T08:28:39;2.13;;;1.65;;
26920;SDS011;14483;47.844;9.660;2023-05-07T08:31:07;2.60;;;1.70;;
26920;SDS011;14483;47.844;9.660;2023-05-07T08:33:33;2.97;;;1.80;;
26920;SDS011;14483;47.844;9.660;2023-05-07T08:35:59;2.85;;;1.40;;
26920;SDS011;14483;47.844;9.660;2023-05-07T08:38:26;3.38;;;1.20;;
26920;SDS011;14483;47.844;9.660;2023-05-07T08:40:52;2.33;;;1.63;;
26920;SDS011;14483;47.844;9.660;2023-05-07T08:43:18;3.47;;;1.50;;
26920;SDS011;14483;47.844;9.660;2023-05-07T08:45:45;4.53;;;1.40;;
26920;SDS011;14483;47.844;9.660;2023-05-07T08:48:17;2.75;;;1.50;;
26920;SDS011;14483;47.844;9.660;2023-05-07T08:50:43;2.28;;;1.27;;
26920;SDS011;14483;47.844;9.660;2023-05-07T08:53:10;4.50;;;1.60;;
26920;SDS011;14483;47.844;9.660;2023-05-07T08:55:36;2.53;;;1.52;;
26920;SDS011;14483;47.844;9.660;2023-05-07T08:58:03;2.75;;;1.85;;
26920;SDS011;14483;47.844;9.660;2023-05-07T09:00:29;4.97;;;2.03;;
26920;SDS011;14483;47.844;9.660;2023-05-07T09:02:56;2.65;;;1.63;;
26920;SDS011;14483;47.844;9.660;2023-05-07T09:05:23;2.72;;;1.52;;
26920;SDS011;14483;47.844;9.660;2023-05-07T09:07:50;5.30;;;2.15;;
26920;SDS011;14483;47.844;9.660;2023-05-07T09:10:16;3.55;;;1.63;;
26920;SDS011;14483;47.844;9.660;2023-05-07T09:12:42;5.43;;;2.15;;
26920;SDS011;14483;47.844;9.660;2023-05-07T09:15:09;3.60;;;2.15;;
26920;SDS011;14483;47.844;9.660;2023-05-07T09:17:35;5.20;;;2.33;;
26920;SDS011;14483;47.844;9.660;2023-05-07T09:20:02;2.45;;;1.90;;
26920;SDS011;14483;47.844;9.660;2023-05-07T09:22:32;4.63;;;2.42;;
26920;SDS011;14483;47.844;9.660;2023-05-07T09:24:58;3.22;;;2.25;;
26920;SDS011;14483;47.844;9.660;2023-05-07T09:27:25;5.28;;;2.08;;
26920;SDS011;14483;47.844;9.660;2023-05-07T09:29:51;3.22;;;2.40;;
26920;SDS011;14483;47.844;9.660;2023-05-07T09:32:18;4.85;;;2.17;;
26920;SDS011;14483;47.844;9.660;2023-05-07T09:34:44;3.05;;;2.03;;
26920;SDS011;14483;47.844;9.660;2023-05-07T09:37:12;3.72;;;1.90;;
26920;SDS011;14483;47.844;9.660;2023-05-07T09:39:40;5.70;;;2.65;;
26920;SDS011;14483;47.844;9.660;2023-05-07T09:42:07;3.63;;;1.92;;
26920;SDS011;14483;47.844;9.660;2023-05-07T09:44:33;3.67;;;2.10;;
26920;SDS011;14483;47.844;9.660;2023-05-07T09:47:00;3.10;;;1.85;;
26920;SDS011;14483;47.844;9.660;2023-05-07T09:49:28;3.47;;;2.28;;
26920;SDS011;14483;47.844;9.660;2023-05-07T09:51:55;5.20;;;2.22;;
26920;SDS011;14483;47.844;9.660;2023-05-07T09:54:22;3.60;;;2.05;;
26920;SDS011;14483;47.844;9.660;2023-05-07T09:56:50;5.32;;;1.65;;
26920;SDS011;14483;47.844;9.660;2023-05-07T09:59:17;3.55;;;1.70;;
26920;SDS011;14483;47.844;9.660;2023-05-07T10:01:44;5.45;;;2.40;;
26920;SDS011;14483;47.844;9.660;2023-05-07T10:04:11;4.00;;;2.30;;
26920;SDS011;14483;47.844;9.660;2023-05-07T10:06:38;5.40;;;2.00;;
26920;SDS011;14483;47.844;9.660;2023-05-07T10:09:05;4.30;;;1.70;;
26920;SDS011;14483;47.844;9.660;2023-05-07T10:11:31;2.22;;;1.40;;
26920;SDS011;14483;47.844;9.660;2023-05-07T10:13:59;4.00;;;1.55;;
26920;SDS011;14483;47.844;9.660;2023-05-07T10:16:27;5.38;;;2.10;;
26920;SDS011;14483;47.844;9.660;2023-05-07T10:18:53;3.35;;;1.63;;
26920;SDS011;14483;47.844;9.660;2023-05-07T10:21:20;3.28;;;1.70;;
26920;SDS011;14483;47.844;9.660;2023-05-07T10:23:48;2.88;;;1.55;;
26920;SDS011;14483;47.844;9.660;2023-05-07T10:26:15;2.38;;;1.50;;
26920;SDS011;14483;47.844;9.660;2023-05-07T10:28:44;3.10;;;1.67;;
26920;SDS011;14483;47.844;9.660;2023-05-07T10:31:18;4.18;;;1.80;;
26920;SDS011;14483;47.844;9.660;2023-05-07T10:33:47;5.07;;;1.88;;
26920;SDS011;14483;47.844;9.660;2023-05-07T10:36:15;2.67;;;1.83;;
26920;SDS011;14483;47.844;9.660;2023-05-07T10:38:42;3.90;;;2.35;;
26920;SDS011;14483;47.844;9.660;2023-05-07T10:41:08;4.50;;;2.17;;
26920;SDS011;14483;47.844;9.660;2023-05-07T10:43:38;4.15;;;2.40;;
26920;SDS011;14483;47.844;9.660;2023-05-07T10:46:11;3.78;;;2.03;;
26920;SDS011;14483;47.844;9.660;2023-05-07T10:56:33;2.30;;;1.38;;
26920;SDS011;14483;47.844;9.660;2023-05-07T11:01:53;2.15;;;1.20;;
26920;SDS011;14483;47.844;9.660;2023-05-07T11:04:19;2.17;;;1.20;;
26920;SDS011;14483;47.844;9.660;2023-05-07T11:12:13;1.92;;;1.10;;
26920;SDS011;14483;47.844;9.660;2023-05-07T11:14:43;1.85;;;0.95;;
26920;SDS011;14483;47.844;9.660;2023-05-07T11:17:09;3.47;;;1.23;;
26920;SDS011;14483;47.844;9.660;2023-05-07T11:19:48;3.28;;;1.02;;
26920;SDS011;14483;47.844;9.660;2023-05-07T11:22:35;1.35;;;1.08;;
26920;SDS011;14483;47.844;9.660;2023-05-07T11:25:05;1.70;;;0.90;;
26920;SDS011;14483;47.844;9.660;2023-05-07T11:27:33;2.15;;;1.02;;
26920;SDS011;14483;47.844;9.660;2023-05-07T11:29:59;6.25;;;1.00;;
26920;SDS011;14483;47.844;9.660;2023-05-07T11:32:26;2.20;;;0.90;;
26920;SDS011;14483;47.844;9.660;2023-05-07T11:34:53;4.40;;;0.82;;
26920;SDS011;14483;47.844;9.660;2023-05-07T11:37:20;1.95;;;0.60;;
26920;SDS011;14483;47.844;9.660;2023-05-07T11:39:47;2.63;;;0.82;;
26920;SDS011;14483;47.844;9.660;2023-05-07T11:42:24;1.02;;;0.70;;
26920;SDS011;14483;47.844;9.660;2023-05-07T11:44:52;0.70;;;0.60;;
26920;SDS011;14483;47.844;9.660;2023-05-07T11:47:19;1.60;;;0.82;;
26920;SDS011;14483;47.844;9.660;2023-05-07T11:49:46;2.90;;;0.80;;
26920;SDS011;14483;47.844;9.660;2023-05-07T11:52:12;2.33;;;1.08;;
26920;SDS011;14483;47.844;9.660;2023-05-07T11:54:39;1.77;;;0.70;;
26920;SDS011;14483;47.844;9.660;2023-05-07T11:57:05;1.95;;;0.68;;
26920;SDS011;14483;47.844;9.660;2023-05-07T11:59:38;2.55;;;0.82;;
26920;SDS011;14483;47.844;9.660;2023-05-07T12:02:06;1.20;;;0.90;;
26920;SDS011;14483;47.844;9.660;2023-05-07T12:04:32;1.27;;;0.77;;
26920;SDS011;14483;47.844;9.660;2023-05-07T12:06:59;2.35;;;1.00;;
26920;SDS011;14483;47.844;9.660;2023-05-07T12:09:26;1.42;;;0.80;;
26920;SDS011;14483;47.844;9.660;2023-05-07T12:11:52;1.15;;;0.70;;
26920;SDS011;14483;47.844;9.660;2023-05-07T12:14:21;0.82;;;0.60;;
26920;SDS011;14483;47.844;9.660;2023-05-07T12:16:47;2.15;;;0.68;;
26920;SDS011;14483;47.844;9.660;2023-05-07T12:19:15;0.82;;;0.73;;
26920;SDS011;14483;47.844;9.660;2023-05-07T12:21:41;3.17;;;1.00;;
26920;SDS011;14483;47.844;9.660;2023-05-07T12:24:08;2.55;;;0.80;;
26920;SDS011;14483;47.844;9.660;2023-05-07T12:26:37;3.83;;;0.70;;
26920;SDS011;14483;47.844;9.660;2023-05-07T12:29:03;1.38;;;0.90;;
26920;SDS011;14483;47.844;9.660;2023-05-07T12:31:30;1.20;;;0.80;;
26920;SDS011;14483;47.844;9.660;2023-05-07T12:33:57;2.63;;;0.90;;
26920;SDS011;14483;47.844;9.660;2023-05-07T12:36:24;2.97;;;0.80;;
26920;SDS011;14483;47.844;9.660;2023-05-07T12:38:51;2.58;;;1.30;;
26920;SDS011;14483;47.844;9.660;2023-05-07T12:41:17;3.13;;;1.02;;
26920;SDS011;14483;47.844;9.660;2023-05-07T12:43:44;2.28;;;0.93;;
26920;SDS011;14483;47.844;9.660;2023-05-07T12:46:11;3.60;;;0.95;;
26920;SDS011;14483;47.844;9.660;2023-05-07T12:48:38;1.50;;;1.00;;
26920;SDS011;14483;47.844;9.660;2023-05-07T12:51:10;1.42;;;0.80;;
26920;SDS011;14483;47.844;9.660;2023-05-07T12:53:40;1.30;;;0.80;;
26920;SDS011;14483;47.844;9.660;2023-05-07T12:56:07;1.27;;;0.90;;
26920;SDS011;14483;47.844;9.660;2023-05-07T12:58:34;3.70;;;2.05;;
26920;SDS011;14483;47.844;9.660;2023-05-07T13:01:03;1.20;;;0.70;;
26920;SDS011;14483;47.844;9.660;2023-05-07T13:03:31;3.50;;;0.90;;
26920;SDS011;14483;47.844;9.660;2023-05-07T13:05:58;6.28;;;0.98;;
26920;SDS011;14483;47.844;9.660;2023-05-07T13:08:29;2.05;;;0.90;;
26920;SDS011;14483;47.844;9.660;2023-05-07T13:10:57;1.42;;;1.05;;
26920;SDS011;14483;47.844;9.660;2023-05-07T13:13:23;1.30;;;0.75;;
26920;SDS011;14483;47.844;9.660;2023-05-07T13:15:50;1.52;;;0.90;;
26920;SDS011;14483;47.844;9.660;2023-05-07T13:18:16;2.10;;;1.17;;
26920;SDS011;14483;47.844;9.660;2023-05-07T13:20:43;5.15;;;0.80;;
26920;SDS011;14483;47.844;9.660;2023-05-07T13:23:09;1.17;;;0.80;;
26920;SDS011;14483;47.844;9.660;2023-05-07T13:25:35;2.65;;;1.10;;
26920;SDS011;14483;47.844;9.660;2023-05-07T13:28:03;1.00;;;0.80;;
26920;SDS011;14483;47.844;9.660;2023-05-07T13:30:30;1.70;;;1.00;;
26920;SDS011;14483;47.844;9.660;2023-05-07T13:32:56;0.95;;;0.85;;
26920;SDS011;14483;47.844;9.660;2023-05-07T13:35:23;2.90;;;1.02;;
26920;SDS011;14483;47.844;9.660;2023-05-07T13:37:49;1.63;;;0.90;;
26920;SDS011;14483;47.844;9.660;2023-05-07T13:40:17;2.28;;;0.80;;
26920;SDS011;14483;47.844;9.660;2023-05-07T13:42:43;2.40;;;1.52;;
26920;SDS011;14483;47.844;9.660;2023-05-07T13:45:11;2.53;;;1.40;;
26920;SDS011;14483;47.844;9.660;2023-05-07T13:47:39;1.73;;;0.80;;
26920;SDS011;14483;47.844;9.660;2023-05-07T13:50:06;3.10;;;1.10;;
26920;SDS011;14483;47.844;9.660;2023-05-07T13:52:32;2.63;;;0.90;;
26920;SDS011;14483;47.844;9.660;2023-05-07T13:54:59;3.55;;;0.70;;
26920;SDS011;14483;47.844;9.660;2023-05-07T13:57:25;1.92;;;0.80;;
26920;SDS011;14483;47.844;9.660;2023-05-07T13:59:51;0.98;;;0.85;;
26920;SDS011;14483;47.844;9.660;2023-05-07T14:02:19;2.95;;;0.90;;
26920;SDS011;14483;47.844;9.660;2023-05-07T14:04:46;2.92;;;1.00;;
26920;SDS011;14483;47.844;9.660;2023-05-07T14:07:12;3.65;;;0.90;;
26920;SDS011;14483;47.844;9.660;2023-05-07T14:09:38;1.67;;;1.00;;
26920;SDS011;14483;47.844;9.660;2023-05-07T14:12:05;2.65;;;1.00;;
26920;SDS011;14483;47.844;9.660;2023-05-07T14:14:31;2.03;;;1.13;;
26920;SDS011;14483;47.844;9.660;2023-05-07T14:16:58;2.75;;;1.00;;
26920;SDS011;14483;47.844;9.660;2023-05-07T14:19:25;4.00;;;0.93;;
26920;SDS011;14483;47.844;9.660;2023-05-07T14:21:52;1.00;;;0.70;;
26920;SDS011;14483;47.844;9.660;2023-05-07T14:24:18;1.88;;;0.90;;
26920;SDS011;14483;47.844;9.660;2023-05-07T14:26:45;2.83;;;0.98;;
26920;SDS011;14483;47.844;9.660;2023-05-07T14:29:11;1.42;;;0.82;;
26920;SDS011;14483;47.844;9.660;2023-05-07T14:31:37;2.88;;;1.17;;
26920;SDS011;14483;47.844;9.660;2023-05-07T14:34:04;1.65;;;1.02;;
26920;SDS011;14483;47.844;9.660;2023-05-07T14:36:32;1.42;;;0.80;;
26920;SDS011;14483;47.844;9.660;2023-05-07T14:38:59;2.03;;;1.10;;
26920;SDS011;14483;47.844;9.660;2023-05-07T14:41:26;6.10;;;1.63;;
26920;SDS011;14483;47.844;9.660;2023-05-07T14:43:52;1.25;;;0.95;;
26920;SDS011;14483;47.844;9.660;2023-05-07T14:46:19;3.70;;;0.93;;
26920;SDS011;14483;47.844;9.660;2023-05-07T14:48:45;2.33;;;0.90;;
26920;SDS011;14483;47.844;9.660;2023-05-07T14:51:12;3.53;;;1.02;;
26920;SDS011;14483;47.844;9.660;2023-05-07T14:53:40;2.70;;;1.30;;
26920;SDS011;14483;47.844;9.660;2023-05-07T14:56:06;0.80;;;0.70;;
26920;SDS011;14483;47.844;9.660;2023-05-07T14:58:33;3.10;;;1.17;;
26920;SDS011;14483;47.844;9.660;2023-05-07T15:01:00;3.78;;;1.00;;
26920;SDS011;14483;47.844;9.660;2023-05-07T15:03:26;1.25;;;0.90;;